Grand Rapids, MI (49512)

1:24 AM EST on February 27, 2015 (GMT -0500)
Southeast Grand Rapids | Change Station
CLOSE
Current Station
Personal Weather Station
Location: Kentwood, MI
Elevation: 791 ft
Nearby Weather Stations

Elev 791 ft 42.86 °N, 85.61 °W | Updated 2 minutes ago

Clear
Clear
-1.8 °F
Feels Like -2 °F
N
0.0
Wind Variable Wind from West

Today
High -- | Low -- °F
--% Chance of Precip.
Yesterday
High -- | Low -- °F
Precip. -- in
7:21 AM 6:28 PM
Waxing Gibbous, 66% visible
Pressure 30.45 in
Visibility 10.0 miles
Clouds Clear
Windchill -2 °F
Dew Point -10 °F
Humidity 66%
Rainfall 0.00 in
Snow Depth Not available.
UV 0 out of 12
Pollen .30 out of 12
Air Quality Not available.
Flu Activity Not available.
METAR KGRR 270553Z AUTO 36004KT 10SM CLR M17/M24 A3039 RMK AO2 SLP309 T11721239 11117 21172 51017

More Conditions Fewer Conditions

Pressure 30.45 in
Visibility 10.0 miles
Clouds Clear
Windchill -2 °F
Dew Point -10 °F
Humidity 66%
Rainfall 0.00 in
Snow Depth Not available.
UV 0 out of 12
Pollen .30 out of 12
Air Quality Not available.
Flu Activity Not available.
METAR KGRR 270553Z AUTO 36004KT 10SM CLR M17/M24 A3039 RMK AO2 SLP309 T11721239 11117 21172 51017

More Conditions Fewer Conditions

10-Day Weather Forecast

Almanac

Astronomy

Feb. 27, 2015 Rise Set
Actual Time
Civil Twilight
Nautical Twilight
Astronomical Twilight
Moon
Length of Visible Light
Length of Day
Tomorrow will be .
, % of the Moon is Illuminated

Today's Extremes

State Highs State Lows

Community

WunderPhotos

Upload Photos

1,800,646 photos uploaded!

WunderBlogs® & News

Nearby

Air Quality

  Air Quality AQ Index Pollutant
Not available.

Snow Depth

Station Depth Elevation

Earthquake Activity

City Distance Mag. Time & Date
Minimum magnitude displayed is 2.5.

Coastal Water Temperatures

Place Temperature

Nearby Weather Stations